sensor_id;sensor_type;location;lat;lon;timestamp;temperature;humidity
59660;DHT22;45534;52.690;6.268;2022-12-29T00:02:04;10.20;99.90
59660;DHT22;45534;52.690;6.268;2022-12-29T00:04:30;10.20;99.90
59660;DHT22;45534;52.690;6.268;2022-12-29T00:06:56;10.30;99.90
59660;DHT22;45534;52.690;6.268;2022-12-29T00:09:22;10.30;99.90
59660;DHT22;45534;52.690;6.268;2022-12-29T00:11:48;10.30;99.90
59660;DHT22;45534;52.690;6.268;2022-12-29T00:14:15;10.30;99.90
59660;DHT22;45534;52.690;6.268;2022-12-29T00:16:59;10.30;99.90
59660;DHT22;45534;52.690;6.268;2022-12-29T00:19:25;10.30;99.90
59660;DHT22;45534;52.690;6.268;2022-12-29T00:22:11;10.40;99.90
59660;DHT22;45534;52.690;6.268;2022-12-29T00:24:56;10.40;99.90
59660;DHT22;45534;52.690;6.268;2022-12-29T00:27:34;10.40;99.90
59660;DHT22;45534;52.690;6.268;2022-12-29T00:30:35;10.40;99.90
59660;DHT22;45534;52.690;6.268;2022-12-29T00:33:28;10.40;99.90
59660;DHT22;45534;52.690;6.268;2022-12-29T00:36:31;10.50;99.90
59660;DHT22;45534;52.690;6.268;2022-12-29T00:39:07;10.50;99.90
59660;DHT22;45534;52.690;6.268;2022-12-29T00:41:52;10.50;99.90
59660;DHT22;45534;52.690;6.268;2022-12-29T00:44:37;10.50;99.90
59660;DHT22;45534;52.690;6.268;2022-12-29T00:47:02;10.50;99.90
59660;DHT22;45534;52.690;6.268;2022-12-29T00:49:30;10.50;99.90
59660;DHT22;45534;52.690;6.268;2022-12-29T00:52:02;10.40;99.90
59660;DHT22;45534;52.690;6.268;2022-12-29T00:54:33;10.40;99.90
59660;DHT22;45534;52.690;6.268;2022-12-29T00:57:00;10.40;99.90
59660;DHT22;45534;52.690;6.268;2022-12-29T00:59:26;10.40;99.90
59660;DHT22;45534;52.690;6.268;2022-12-29T01:01:53;10.50;99.90
59660;DHT22;45534;52.690;6.268;2022-12-29T01:04:24;10.50;99.90
59660;DHT22;45534;52.690;6.268;2022-12-29T01:06:53;10.50;99.90
59660;DHT22;45534;52.690;6.268;2022-12-29T01:09:19;10.50;99.90
59660;DHT22;45534;52.690;6.268;2022-12-29T01:12:05;10.50;99.90
59660;DHT22;45534;52.690;6.268;2022-12-29T01:14:31;10.50;99.90
59660;DHT22;45534;52.690;6.268;2022-12-29T01:16:57;10.50;99.90
59660;DHT22;45534;52.690;6.268;2022-12-29T01:19:24;10.60;99.90
59660;DHT22;45534;52.690;6.268;2022-12-29T01:21:50;10.60;99.90
59660;DHT22;45534;52.690;6.268;2022-12-29T01:24:16;10.60;99.90
59660;DHT22;45534;52.690;6.268;2022-12-29T01:26:43;10.70;99.90
59660;DHT22;45534;52.690;6.268;2022-12-29T01:29:09;10.60;99.90
59660;DHT22;45534;52.690;6.268;2022-12-29T01:31:35;10.70;99.90
59660;DHT22;45534;52.690;6.268;2022-12-29T01:34:01;10.70;99.90
59660;DHT22;45534;52.690;6.268;2022-12-29T01:36:26;10.70;99.90
59660;DHT22;45534;52.690;6.268;2022-12-29T01:38:52;10.70;99.90
59660;DHT22;45534;52.690;6.268;2022-12-29T01:41:18;10.70;99.90
59660;DHT22;45534;52.690;6.268;2022-12-29T01:49:12;10.70;99.90
59660;DHT22;45534;52.690;6.268;2022-12-29T01:51:42;10.70;99.90
59660;DHT22;45534;52.690;6.268;2022-12-29T01:54:13;10.70;99.90
59660;DHT22;45534;52.690;6.268;2022-12-29T01:56:40;10.70;99.90
59660;DHT22;45534;52.690;6.268;2022-12-29T01:59:12;10.70;99.90
59660;DHT22;45534;52.690;6.268;2022-12-29T02:01:40;10.70;99.90
59660;DHT22;45534;52.690;6.268;2022-12-29T02:04:09;10.70;99.90
59660;DHT22;45534;52.690;6.268;2022-12-29T02:06:50;10.70;99.90
59660;DHT22;45534;52.690;6.268;2022-12-29T02:09:17;10.70;99.90
59660;DHT22;45534;52.690;6.268;2022-12-29T02:11:43;10.70;99.90
59660;DHT22;45534;52.690;6.268;2022-12-29T02:14:10;10.70;99.90
59660;DHT22;45534;52.690;6.268;2022-12-29T02:22:34;10.60;99.90
59660;DHT22;45534;52.690;6.268;2022-12-29T02:33:30;10.40;99.90
59660;DHT22;45534;52.690;6.268;2022-12-29T02:36:20;10.40;99.90
59660;DHT22;45534;52.690;6.268;2022-12-29T02:39:03;10.40;99.90
59660;DHT22;45534;52.690;6.268;2022-12-29T02:41:33;10.40;99.90
59660;DHT22;45534;52.690;6.268;2022-12-29T02:46:44;10.40;99.90
59660;DHT22;45534;52.690;6.268;2022-12-29T02:49:20;10.40;99.90
59660;DHT22;45534;52.690;6.268;2022-12-29T02:52:11;10.40;99.90
59660;DHT22;45534;52.690;6.268;2022-12-29T02:54:40;10.40;99.90
59660;DHT22;45534;52.690;6.268;2022-12-29T02:59:54;10.40;99.90
59660;DHT22;45534;52.690;6.268;2022-12-29T03:13:39;10.50;99.90
59660;DHT22;45534;52.690;6.268;2022-12-29T03:16:44;10.40;99.90
59660;DHT22;45534;52.690;6.268;2022-12-29T03:19:30;10.50;99.90
59660;DHT22;45534;52.690;6.268;2022-12-29T03:21:59;10.50;99.90
59660;DHT22;45534;52.690;6.268;2022-12-29T03:24:48;10.60;99.90
59660;DHT22;45534;52.690;6.268;2022-12-29T03:27:19;10.60;99.90
59660;DHT22;45534;52.690;6.268;2022-12-29T03:29:49;10.70;99.90
59660;DHT22;45534;52.690;6.268;2022-12-29T03:32:20;10.70;99.90
59660;DHT22;45534;52.690;6.268;2022-12-29T03:34:49;10.70;99.90
59660;DHT22;45534;52.690;6.268;2022-12-29T03:37:18;10.70;99.90
59660;DHT22;45534;52.690;6.268;2022-12-29T03:39:46;10.70;99.90
59660;DHT22;45534;52.690;6.268;2022-12-29T03:42:19;10.70;99.90
59660;DHT22;45534;52.690;6.268;2022-12-29T03:44:54;10.70;99.90
59660;DHT22;45534;52.690;6.268;2022-12-29T03:47:20;10.70;99.90
59660;DHT22;45534;52.690;6.268;2022-12-29T03:49:46;10.60;99.90
59660;DHT22;45534;52.690;6.268;2022-12-29T03:52:12;10.60;99.90
59660;DHT22;45534;52.690;6.268;2022-12-29T03:54:38;10.50;99.90
59660;DHT22;45534;52.690;6.268;2022-12-29T03:57:04;10.40;99.90
59660;DHT22;45534;52.690;6.268;2022-12-29T03:59:29;10.30;99.90
59660;DHT22;45534;52.690;6.268;2022-12-29T04:01:55;10.30;99.90
59660;DHT22;45534;52.690;6.268;2022-12-29T04:04:21;10.20;99.90
59660;DHT22;45534;52.690;6.268;2022-12-29T04:06:46;10.20;99.90
59660;DHT22;45534;52.690;6.268;2022-12-29T04:09:12;10.20;99.90
59660;DHT22;45534;52.690;6.268;2022-12-29T04:11:38;10.20;99.90
59660;DHT22;45534;52.690;6.268;2022-12-29T04:14:03;10.20;99.90
59660;DHT22;45534;52.690;6.268;2022-12-29T04:16:29;10.20;99.90
59660;DHT22;45534;52.690;6.268;2022-12-29T04:18:55;10.20;99.90
59660;DHT22;45534;52.690;6.268;2022-12-29T04:21:20;10.30;99.90
59660;DHT22;45534;52.690;6.268;2022-12-29T04:23:46;10.30;99.90
59660;DHT22;45534;52.690;6.268;2022-12-29T04:26:12;10.30;99.90
59660;DHT22;45534;52.690;6.268;2022-12-29T04:28:37;10.30;99.90
59660;DHT22;45534;52.690;6.268;2022-12-29T04:31:04;10.30;99.90
59660;DHT22;45534;52.690;6.268;2022-12-29T04:33:30;10.20;99.90
59660;DHT22;45534;52.690;6.268;2022-12-29T04:35:56;10.20;99.90
59660;DHT22;45534;52.690;6.268;2022-12-29T04:38:22;10.20;99.90
59660;DHT22;45534;52.690;6.268;2022-12-29T04:40:49;10.20;99.90
59660;DHT22;45534;52.690;6.268;2022-12-29T04:43:15;10.20;99.90
59660;DHT22;45534;52.690;6.268;2022-12-29T04:45:46;10.20;99.90
59660;DHT22;45534;52.690;6.268;2022-12-29T04:48:12;10.20;99.90
59660;DHT22;45534;52.690;6.268;2022-12-29T04:50:39;10.20;99.90
59660;DHT22;45534;52.690;6.268;2022-12-29T04:53:05;10.20;99.90
59660;DHT22;45534;52.690;6.268;2022-12-29T04:55:30;10.10;99.90
59660;DHT22;45534;52.690;6.268;2022-12-29T04:57:56;10.20;99.90
59660;DHT22;45534;52.690;6.268;2022-12-29T05:00:22;10.10;99.90
59660;DHT22;45534;52.690;6.268;2022-12-29T05:02:47;10.20;99.90
59660;DHT22;45534;52.690;6.268;2022-12-29T05:05:13;10.10;99.90
59660;DHT22;45534;52.690;6.268;2022-12-29T05:07:39;10.10;99.90
59660;DHT22;45534;52.690;6.268;2022-12-29T05:10:05;10.20;99.90
59660;DHT22;45534;52.690;6.268;2022-12-29T05:12:32;10.10;99.90
59660;DHT22;45534;52.690;6.268;2022-12-29T05:14:59;10.10;99.90
59660;DHT22;45534;52.690;6.268;2022-12-29T05:17:25;10.20;99.90
59660;DHT22;45534;52.690;6.268;2022-12-29T05:19:51;10.20;99.90
59660;DHT22;45534;52.690;6.268;2022-12-29T05:22:17;10.20;99.90
59660;DHT22;45534;52.690;6.268;2022-12-29T05:24:42;10.20;99.90
59660;DHT22;45534;52.690;6.268;2022-12-29T05:27:08;10.10;99.90
59660;DHT22;45534;52.690;6.268;2022-12-29T05:29:34;10.20;99.90
59660;DHT22;45534;52.690;6.268;2022-12-29T05:32:00;10.20;99.90
59660;DHT22;45534;52.690;6.268;2022-12-29T05:34:25;10.20;99.90
59660;DHT22;45534;52.690;6.268;2022-12-29T05:36:51;10.20;99.90
59660;DHT22;45534;52.690;6.268;2022-12-29T05:39:17;10.20;99.90
59660;DHT22;45534;52.690;6.268;2022-12-29T05:41:43;10.20;99.90
59660;DHT22;45534;52.690;6.268;2022-12-29T05:44:10;10.20;99.90
59660;DHT22;45534;52.690;6.268;2022-12-29T05:46:36;10.20;99.90
59660;DHT22;45534;52.690;6.268;2022-12-29T05:49:01;10.20;99.90
59660;DHT22;45534;52.690;6.268;2022-12-29T05:51:27;10.20;99.90
59660;DHT22;45534;52.690;6.268;2022-12-29T05:53:53;10.10;99.90
59660;DHT22;45534;52.690;6.268;2022-12-29T05:56:19;10.00;99.90
59660;DHT22;45534;52.690;6.268;2022-12-29T05:58:44;10.00;99.90
59660;DHT22;45534;52.690;6.268;2022-12-29T06:01:10;10.00;99.90
59660;DHT22;45534;52.690;6.268;2022-12-29T06:03:35;10.00;99.90
59660;DHT22;45534;52.690;6.268;2022-12-29T06:06:01;9.90;99.90
59660;DHT22;45534;52.690;6.268;2022-12-29T06:08:27;9.90;99.90
59660;DHT22;45534;52.690;6.268;2022-12-29T06:10:52;9.90;99.90
59660;DHT22;45534;52.690;6.268;2022-12-29T06:13:18;9.90;99.90
59660;DHT22;45534;52.690;6.268;2022-12-29T06:15:44;9.90;99.90
59660;DHT22;45534;52.690;6.268;2022-12-29T06:18:09;9.90;99.90
59660;DHT22;45534;52.690;6.268;2022-12-29T06:20:35;9.90;99.90
59660;DHT22;45534;52.690;6.268;2022-12-29T06:23:01;10.00;99.90
59660;DHT22;45534;52.690;6.268;2022-12-29T06:25:27;10.00;99.90
59660;DHT22;45534;52.690;6.268;2022-12-29T06:27:53;10.00;99.90
59660;DHT22;45534;52.690;6.268;2022-12-29T06:30:19;10.00;99.90
59660;DHT22;45534;52.690;6.268;2022-12-29T06:32:45;10.00;99.90
59660;DHT22;45534;52.690;6.268;2022-12-29T06:35:11;10.00;99.90
59660;DHT22;45534;52.690;6.268;2022-12-29T06:37:37;10.00;99.90
59660;DHT22;45534;52.690;6.268;2022-12-29T06:40:02;10.00;99.90
59660;DHT22;45534;52.690;6.268;2022-12-29T06:42:28;10.00;99.90
59660;DHT22;45534;52.690;6.268;2022-12-29T06:44:54;10.00;99.90
59660;DHT22;45534;52.690;6.268;2022-12-29T06:47:22;10.10;99.90
59660;DHT22;45534;52.690;6.268;2022-12-29T06:49:48;10.00;99.90
59660;DHT22;45534;52.690;6.268;2022-12-29T06:52:14;10.00;99.90
59660;DHT22;45534;52.690;6.268;2022-12-29T06:54:39;10.00;99.90
59660;DHT22;45534;52.690;6.268;2022-12-29T06:57:05;10.00;99.90
59660;DHT22;45534;52.690;6.268;2022-12-29T06:59:31;10.00;99.90
59660;DHT22;45534;52.690;6.268;2022-12-29T07:01:56;10.00;99.90
59660;DHT22;45534;52.690;6.268;2022-12-29T07:04:22;10.00;99.90
59660;DHT22;45534;52.690;6.268;2022-12-29T07:06:48;9.90;99.90
59660;DHT22;45534;52.690;6.268;2022-12-29T07:09:13;9.90;99.90
59660;DHT22;45534;52.690;6.268;2022-12-29T07:11:39;9.90;99.90
59660;DHT22;45534;52.690;6.268;2022-12-29T07:14:05;9.90;99.90
59660;DHT22;45534;52.690;6.268;2022-12-29T07:16:31;9.90;99.90
59660;DHT22;45534;52.690;6.268;2022-12-29T07:18:57;9.80;99.90
59660;DHT22;45534;52.690;6.268;2022-12-29T07:21:24;9.80;99.90
59660;DHT22;45534;52.690;6.268;2022-12-29T07:23:50;9.80;99.90
59660;DHT22;45534;52.690;6.268;2022-12-29T07:26:16;9.80;99.90
59660;DHT22;45534;52.690;6.268;2022-12-29T07:28:45;9.80;99.90
59660;DHT22;45534;52.690;6.268;2022-12-29T07:31:22;9.80;99.90
59660;DHT22;45534;52.690;6.268;2022-12-29T07:33:48;9.80;99.90
59660;DHT22;45534;52.690;6.268;2022-12-29T07:36:14;9.80;99.90
59660;DHT22;45534;52.690;6.268;2022-12-29T07:38:41;9.90;99.90
59660;DHT22;45534;52.690;6.268;2022-12-29T07:41:07;9.90;99.90
59660;DHT22;45534;52.690;6.268;2022-12-29T07:43:33;9.90;99.90
59660;DHT22;45534;52.690;6.268;2022-12-29T07:45:58;9.90;99.90
59660;DHT22;45534;52.690;6.268;2022-12-29T07:48:24;9.90;99.90
59660;DHT22;45534;52.690;6.268;2022-12-29T07:50:50;9.90;99.90
59660;DHT22;45534;52.690;6.268;2022-12-29T07:53:16;9.80;99.90
59660;DHT22;45534;52.690;6.268;2022-12-29T07:55:41;9.90;99.90
59660;DHT22;45534;52.690;6.268;2022-12-29T07:58:07;9.90;99.90
59660;DHT22;45534;52.690;6.268;2022-12-29T08:00:33;9.80;99.90
59660;DHT22;45534;52.690;6.268;2022-12-29T08:02:59;9.80;99.90
59660;DHT22;45534;52.690;6.268;2022-12-29T08:05:24;9.80;99.90
59660;DHT22;45534;52.690;6.268;2022-12-29T08:07:50;9.80;99.90
59660;DHT22;45534;52.690;6.268;2022-12-29T08:10:17;9.80;99.90
59660;DHT22;45534;52.690;6.268;2022-12-29T08:12:43;9.80;99.90
59660;DHT22;45534;52.690;6.268;2022-12-29T08:15:10;9.80;99.90
59660;DHT22;45534;52.690;6.268;2022-12-29T08:17:37;9.80;99.90
59660;DHT22;45534;52.690;6.268;2022-12-29T08:20:03;9.80;99.90
59660;DHT22;45534;52.690;6.268;2022-12-29T08:22:29;9.90;99.90
59660;DHT22;45534;52.690;6.268;2022-12-29T08:24:55;9.90;99.90
59660;DHT22;45534;52.690;6.268;2022-12-29T08:27:20;9.90;99.90
59660;DHT22;45534;52.690;6.268;2022-12-29T08:29:46;9.90;99.90
59660;DHT22;45534;52.690;6.268;2022-12-29T08:32:12;9.90;99.90
59660;DHT22;45534;52.690;6.268;2022-12-29T08:34:38;10.00;99.90
59660;DHT22;45534;52.690;6.268;2022-12-29T08:37:04;9.90;99.90
59660;DHT22;45534;52.690;6.268;2022-12-29T08:39:30;10.00;99.90
59660;DHT22;45534;52.690;6.268;2022-12-29T08:41:55;10.00;99.90
59660;DHT22;45534;52.690;6.268;2022-12-29T08:44:21;10.00;99.90
59660;DHT22;45534;52.690;6.268;2022-12-29T08:46:47;10.00;99.90
59660;DHT22;45534;52.690;6.268;2022-12-29T08:49:13;10.00;99.90
59660;DHT22;45534;52.690;6.268;2022-12-29T08:51:38;10.00;99.90
59660;DHT22;45534;52.690;6.268;2022-12-29T08:54:04;9.90;99.90
59660;DHT22;45534;52.690;6.268;2022-12-29T08:56:30;9.90;99.90
59660;DHT22;45534;52.690;6.268;2022-12-29T08:58:56;10.00;99.90
59660;DHT22;45534;52.690;6.268;2022-12-29T09:01:22;10.00;99.90
59660;DHT22;45534;52.690;6.268;2022-12-29T09:03:48;9.90;99.90
59660;DHT22;45534;52.690;6.268;2022-12-29T09:06:15;9.70;99.90
59660;DHT22;45534;52.690;6.268;2022-12-29T09:08:41;9.70;99.90
59660;DHT22;45534;52.690;6.268;2022-12-29T09:11:19;9.60;99.90
59660;DHT22;45534;52.690;6.268;2022-12-29T09:13:45;9.60;99.90
59660;DHT22;45534;52.690;6.268;2022-12-29T09:16:12;9.70;99.90
59660;DHT22;45534;52.690;6.268;2022-12-29T09:18:39;9.60;99.90
59660;DHT22;45534;52.690;6.268;2022-12-29T09:21:05;9.70;99.90
59660;DHT22;45534;52.690;6.268;2022-12-29T09:23:32;9.60;99.90
59660;DHT22;45534;52.690;6.268;2022-12-29T09:25:58;9.60;99.90
59660;DHT22;45534;52.690;6.268;2022-12-29T09:28:24;9.50;99.90
59660;DHT22;45534;52.690;6.268;2022-12-29T09:30:50;9.50;99.90
59660;DHT22;45534;52.690;6.268;2022-12-29T09:33:16;9.50;99.90
59660;DHT22;45534;52.690;6.268;2022-12-29T09:35:43;9.60;99.90
59660;DHT22;45534;52.690;6.268;2022-12-29T09:38:10;9.60;99.90
59660;DHT22;45534;52.690;6.268;2022-12-29T09:40:36;9.50;99.90
59660;DHT22;45534;52.690;6.268;2022-12-29T09:48:44;9.60;99.90
59660;DHT22;45534;52.690;6.268;2022-12-29T09:51:14;9.60;99.90
59660;DHT22;45534;52.690;6.268;2022-12-29T09:53:43;9.60;99.90
59660;DHT22;45534;52.690;6.268;2022-12-29T09:56:15;9.70;99.90
59660;DHT22;45534;52.690;6.268;2022-12-29T09:59:08;9.70;99.90
59660;DHT22;45534;52.690;6.268;2022-12-29T10:01:43;9.70;99.90
59660;DHT22;45534;52.690;6.268;2022-12-29T10:04:09;9.60;99.90
59660;DHT22;45534;52.690;6.268;2022-12-29T10:09:39;9.60;99.90
59660;DHT22;45534;52.690;6.268;2022-12-29T10:23:20;9.40;99.90
59660;DHT22;45534;52.690;6.268;2022-12-29T10:25:49;9.40;99.90
59660;DHT22;45534;52.690;6.268;2022-12-29T10:28:20;9.50;99.90
59660;DHT22;45534;52.690;6.268;2022-12-29T10:30:48;9.50;99.90
59660;DHT22;45534;52.690;6.268;2022-12-29T10:33:27;9.50;99.90
59660;DHT22;45534;52.690;6.268;2022-12-29T10:35:55;9.50;99.90
59660;DHT22;45534;52.690;6.268;2022-12-29T10:41:08;9.60;99.90
59660;DHT22;45534;52.690;6.268;2022-12-29T10:43:47;9.70;99.90
59660;DHT22;45534;52.690;6.268;2022-12-29T10:46:28;9.80;99.90
59660;DHT22;45534;52.690;6.268;2022-12-29T10:48:55;9.70;99.90
59660;DHT22;45534;52.690;6.268;2022-12-29T10:51:24;9.60;99.90
59660;DHT22;45534;52.690;6.268;2022-12-29T10:57:08;9.50;99.90
59660;DHT22;45534;52.690;6.268;2022-12-29T10:59:36;9.50;99.90
59660;DHT22;45534;52.690;6.268;2022-12-29T11:07:12;9.50;99.90
59660;DHT22;45534;52.690;6.268;2022-12-29T11:09:41;9.50;99.90
59660;DHT22;45534;52.690;6.268;2022-12-29T11:12:28;9.50;99.90
59660;DHT22;45534;52.690;6.268;2022-12-29T11:15:15;9.50;99.90
59660;DHT22;45534;52.690;6.268;2022-12-29T11:17:54;9.50;99.90
59660;DHT22;45534;52.690;6.268;2022-12-29T11:20:36;9.50;99.90
59660;DHT22;45534;52.690;6.268;2022-12-29T11:28:32;9.30;99.90
59660;DHT22;45534;52.690;6.268;2022-12-29T11:31:02;9.30;99.90
59660;DHT22;45534;52.690;6.268;2022-12-29T11:33:30;9.40;99.90
59660;DHT22;45534;52.690;6.268;2022-12-29T11:36:16;9.50;99.90
59660;DHT22;45534;52.690;6.268;2022-12-29T11:38:48;9.60;99.90
59660;DHT22;45534;52.690;6.268;2022-12-29T11:41:24;9.70;99.90
59660;DHT22;45534;52.690;6.268;2022-12-29T11:43:51;9.90;99.90
59660;DHT22;45534;52.690;6.268;2022-12-29T11:46:24;10.00;99.90
59660;DHT22;45534;52.690;6.268;2022-12-29T11:48:51;10.10;99.90
59660;DHT22;45534;52.690;6.268;2022-12-29T11:51:46;10.10;99.90
59660;DHT22;45534;52.690;6.268;2022-12-29T11:54:30;10.30;99.90
59660;DHT22;45534;52.690;6.268;2022-12-29T11:56:58;10.40;99.90
59660;DHT22;45534;52.690;6.268;2022-12-29T11:59:37;10.40;99.90
59660;DHT22;45534;52.690;6.268;2022-12-29T12:04:45;10.30;99.90
59660;DHT22;45534;52.690;6.268;2022-12-29T12:07:17;10.10;99.90
59660;DHT22;45534;52.690;6.268;2022-12-29T12:09:50;10.00;99.90
59660;DHT22;45534;52.690;6.268;2022-12-29T12:12:34;9.90;99.90
59660;DHT22;45534;52.690;6.268;2022-12-29T12:15:02;9.70;99.90
59660;DHT22;45534;52.690;6.268;2022-12-29T12:17:37;9.40;99.90
59660;DHT22;45534;52.690;6.268;2022-12-29T12:20:26;9.10;99.90
59660;DHT22;45534;52.690;6.268;2022-12-29T12:25:37;9.40;99.90
59660;DHT22;45534;52.690;6.268;2022-12-29T12:28:17;9.70;99.90
59660;DHT22;45534;52.690;6.268;2022-12-29T12:30:48;9.80;99.90
59660;DHT22;45534;52.690;6.268;2022-12-29T12:38:41;9.80;99.90
59660;DHT22;45534;52.690;6.268;2022-12-29T13:00:01;9.60;99.90
59660;DHT22;45534;52.690;6.268;2022-12-29T13:03:03;9.60;99.90
59660;DHT22;45534;52.690;6.268;2022-12-29T13:06:12;9.60;99.90
59660;DHT22;45534;52.690;6.268;2022-12-29T13:19:34;10.60;99.90
59660;DHT22;45534;52.690;6.268;2022-12-29T13:27:56;10.40;99.90
59660;DHT22;45534;52.690;6.268;2022-12-29T13:30:51;10.20;99.90
59660;DHT22;45534;52.690;6.268;2022-12-29T13:33:27;10.10;99.90
59660;DHT22;45534;52.690;6.268;2022-12-29T13:35:56;10.00;99.90
59660;DHT22;45534;52.690;6.268;2022-12-29T13:38:32;9.90;99.90
59660;DHT22;45534;52.690;6.268;2022-12-29T13:41:06;9.90;99.90
59660;DHT22;45534;52.690;6.268;2022-12-29T13:43:35;9.80;99.90
59660;DHT22;45534;52.690;6.268;2022-12-29T13:46:10;9.70;99.90
59660;DHT22;45534;52.690;6.268;2022-12-29T13:49:10;9.70;99.90
59660;DHT22;45534;52.690;6.268;2022-12-29T13:51:32;9.70;99.90
59660;DHT22;45534;52.690;6.268;2022-12-29T13:56:49;9.70;99.90
59660;DHT22;45534;52.690;6.268;2022-12-29T13:59:36;9.70;99.90
59660;DHT22;45534;52.690;6.268;2022-12-29T14:02:29;9.60;99.90
59660;DHT22;45534;52.690;6.268;2022-12-29T14:05:02;9.50;99.90
59660;DHT22;45534;52.690;6.268;2022-12-29T14:07:29;9.50;99.90
59660;DHT22;45534;52.690;6.268;2022-12-29T14:10:01;9.60;99.90
59660;DHT22;45534;52.690;6.268;2022-12-29T14:12:39;9.50;99.90
59660;DHT22;45534;52.690;6.268;2022-12-29T14:15:21;9.50;99.90
59660;DHT22;45534;52.690;6.268;2022-12-29T14:18:16;9.50;99.90
59660;DHT22;45534;52.690;6.268;2022-12-29T14:28:34;9.40;99.90
59660;DHT22;45534;52.690;6.268;2022-12-29T14:31:01;9.40;99.90
59660;DHT22;45534;52.690;6.268;2022-12-29T14:33:30;9.40;99.90
59660;DHT22;45534;52.690;6.268;2022-12-29T14:35:56;9.40;99.90
59660;DHT22;45534;52.690;6.268;2022-12-29T14:38:27;9.30;99.90
59660;DHT22;45534;52.690;6.268;2022-12-29T14:44:09;9.30;99.90
59660;DHT22;45534;52.690;6.268;2022-12-29T14:46:44;9.30;99.90
59660;DHT22;45534;52.690;6.268;2022-12-29T14:49:17;9.30;99.90
59660;DHT22;45534;52.690;6.268;2022-12-29T14:51:43;9.20;99.90
59660;DHT22;45534;52.690;6.268;2022-12-29T14:54:45;9.20;99.90
59660;DHT22;45534;52.690;6.268;2022-12-29T14:57:22;9.10;99.90
59660;DHT22;45534;52.690;6.268;2022-12-29T14:59:54;9.10;99.90
59660;DHT22;45534;52.690;6.268;2022-12-29T15:02:24;9.10;99.90
59660;DHT22;45534;52.690;6.268;2022-12-29T15:04:53;9.00;99.90
59660;DHT22;45534;52.690;6.268;2022-12-29T15:07:24;9.00;99.90
59660;DHT22;45534;52.690;6.268;2022-12-29T15:10:15;9.00;99.90
59660;DHT22;45534;52.690;6.268;2022-12-29T15:12:47;8.90;99.90
59660;DHT22;45534;52.690;6.268;2022-12-29T15:15:24;8.90;99.90
59660;DHT22;45534;52.690;6.268;2022-12-29T15:17:50;8.80;99.90
59660;DHT22;45534;52.690;6.268;2022-12-29T15:20:28;8.80;99.90
59660;DHT22;45534;52.690;6.268;2022-12-29T15:23:17;8.80;99.90
59660;DHT22;45534;52.690;6.268;2022-12-29T15:25:57;8.80;99.90
59660;DHT22;45534;52.690;6.268;2022-12-29T15:28:24;8.70;99.90
59660;DHT22;45534;52.690;6.268;2022-12-29T15:30:55;8.70;99.90
59660;DHT22;45534;52.690;6.268;2022-12-29T15:33:23;8.70;99.90
59660;DHT22;45534;52.690;6.268;2022-12-29T15:35:53;8.70;99.90
59660;DHT22;45534;52.690;6.268;2022-12-29T15:38:24;8.70;99.90
59660;DHT22;45534;52.690;6.268;2022-12-29T15:40:56;8.70;99.90
59660;DHT22;45534;52.690;6.268;2022-12-29T15:46:06;8.70;99.90
59660;DHT22;45534;52.690;6.268;2022-12-29T15:48:32;8.60;99.90
59660;DHT22;45534;52.690;6.268;2022-12-29T15:50:58;8.60;99.90
59660;DHT22;45534;52.690;6.268;2022-12-29T15:53:30;8.60;99.90
59660;DHT22;45534;52.690;6.268;2022-12-29T15:56:07;8.60;99.90
59660;DHT22;45534;52.690;6.268;2022-12-29T15:58:47;8.60;99.90
59660;DHT22;45534;52.690;6.268;2022-12-29T16:01:33;8.50;99.90
59660;DHT22;45534;52.690;6.268;2022-12-29T16:04:04;8.50;99.90
59660;DHT22;45534;52.690;6.268;2022-12-29T16:06:36;8.40;99.90
59660;DHT22;45534;52.690;6.268;2022-12-29T16:11:35;8.40;99.90
59660;DHT22;45534;52.690;6.268;2022-12-29T16:14:05;8.40;99.90
59660;DHT22;45534;52.690;6.268;2022-12-29T16:16:36;8.40;99.90
59660;DHT22;45534;52.690;6.268;2022-12-29T16:19:22;8.40;99.90
59660;DHT22;45534;52.690;6.268;2022-12-29T16:21:50;8.40;99.90
59660;DHT22;45534;52.690;6.268;2022-12-29T16:24:22;8.40;99.90
59660;DHT22;45534;52.690;6.268;2022-12-29T16:26:55;8.40;99.90
59660;DHT22;45534;52.690;6.268;2022-12-29T16:29:24;8.40;99.90
59660;DHT22;45534;52.690;6.268;2022-12-29T16:31:53;8.40;99.90
59660;DHT22;45534;52.690;6.268;2022-12-29T16:37:05;8.40;99.90
59660;DHT22;45534;52.690;6.268;2022-12-29T16:39:44;8.40;99.90
59660;DHT22;45534;52.690;6.268;2022-12-29T16:47:46;8.40;99.90
59660;DHT22;45534;52.690;6.268;2022-12-29T16:50:16;8.40;99.90
59660;DHT22;45534;52.690;6.268;2022-12-29T16:52:48;8.40;99.90
59660;DHT22;45534;52.690;6.268;2022-12-29T16:55:16;8.50;99.90
59660;DHT22;45534;52.690;6.268;2022-12-29T16:57:44;8.50;99.90
59660;DHT22;45534;52.690;6.268;2022-12-29T17:00:20;8.50;99.90
59660;DHT22;45534;52.690;6.268;2022-12-29T17:02:47;8.50;99.90
59660;DHT22;45534;52.690;6.268;2022-12-29T17:05:15;8.50;99.90
59660;DHT22;45534;52.690;6.268;2022-12-29T17:07:42;8.50;99.90
59660;DHT22;45534;52.690;6.268;2022-12-29T17:10:08;8.50;99.90
59660;DHT22;45534;52.690;6.268;2022-12-29T17:12:34;8.50;99.90
59660;DHT22;45534;52.690;6.268;2022-12-29T17:15:14;8.50;99.90
59660;DHT22;45534;52.690;6.268;2022-12-29T17:17:42;8.40;99.90
59660;DHT22;45534;52.690;6.268;2022-12-29T17:22:45;8.40;99.90
59660;DHT22;45534;52.690;6.268;2022-12-29T17:25:20;8.30;99.90
59660;DHT22;45534;52.690;6.268;2022-12-29T17:27:53;8.30;99.90
59660;DHT22;45534;52.690;6.268;2022-12-29T17:30:21;8.30;99.90
59660;DHT22;45534;52.690;6.268;2022-12-29T17:32:59;8.30;99.90
59660;DHT22;45534;52.690;6.268;2022-12-29T17:35:26;8.30;99.90
59660;DHT22;45534;52.690;6.268;2022-12-29T17:37:52;8.30;99.90
59660;DHT22;45534;52.690;6.268;2022-12-29T17:40:24;8.30;99.90
59660;DHT22;45534;52.690;6.268;2022-12-29T17:42:55;8.30;99.90
59660;DHT22;45534;52.690;6.268;2022-12-29T17:45:31;8.20;99.90
59660;DHT22;45534;52.690;6.268;2022-12-29T17:47:58;8.20;99.90
59660;DHT22;45534;52.690;6.268;2022-12-29T17:50:27;8.30;99.90
59660;DHT22;45534;52.690;6.268;2022-12-29T17:52:57;8.30;99.90
59660;DHT22;45534;52.690;6.268;2022-12-29T17:55:23;8.30;99.90
59660;DHT22;45534;52.690;6.268;2022-12-29T17:57:51;8.30;99.90
59660;DHT22;45534;52.690;6.268;2022-12-29T18:00:20;8.30;99.90
59660;DHT22;45534;52.690;6.268;2022-12-29T18:02:46;8.30;99.90
59660;DHT22;45534;52.690;6.268;2022-12-29T18:05:25;8.30;99.90
59660;DHT22;45534;52.690;6.268;2022-12-29T18:07:53;8.40;99.90
59660;DHT22;45534;52.690;6.268;2022-12-29T18:10:20;8.40;99.90
59660;DHT22;45534;52.690;6.268;2022-12-29T18:12:48;8.40;99.90
59660;DHT22;45534;52.690;6.268;2022-12-29T18:17:46;8.40;99.90
59660;DHT22;45534;52.690;6.268;2022-12-29T18:20:12;8.40;99.90
59660;DHT22;45534;52.690;6.268;2022-12-29T18:22:38;8.40;99.90
59660;DHT22;45534;52.690;6.268;2022-12-29T18:25:19;8.30;99.90
59660;DHT22;45534;52.690;6.268;2022-12-29T18:27:46;8.30;99.90
59660;DHT22;45534;52.690;6.268;2022-12-29T18:30:12;8.30;99.90
59660;DHT22;45534;52.690;6.268;2022-12-29T18:32:38;8.30;99.90